Tiempo atmosférico en la estación meteorológica de Ballobar, Huesca (178 m.)



Fecha
DESCASC
Temp. máxima en grados centígrados (hora)
DESCASC
Temp. mínima en grados centígrados (hora)
DESCASC
Temp. media en grados centígrados
DESCASC
Racha de viento máxima en m/sg (hora)
DESCASC
Velocidad máxima media en intervalos de 10 minutos(hora)
DESCASC
Precipitaciones diarias en mm
DESCASC
Precipitaciones de 00:00 a 06:00 en mm
DESCASC
Precipitaciones de 06:00 a 12:00 en mm
DESCASC
Precipitaciones de 12:00 a 18:00 en mm
DESCASC
Precipitaciones de 18:00 a 24:00 en mm
DESCASC
13-10-2019 27.7 (15:30) 18.5 (05:20) 23.1 10.83 (17:50) 7.5 (21:30) 0 0 0 0 0
12-10-2019 27.3 (14:30) 17.3 (07:00) 22.3 13.33 (16:40) 8.06 (16:30) 0 0 0 0 0
11-10-2019 27 (17:30) 10.8 (05:20) 18.9 9.44 (19:30) 5.56 (19:20) 0 0 0 0 0
10-10-2019 24.3 (17:00) 10.3 (00:00) 17.3 5 (16:00) 3.61 (18:30) 0 0 0 0 0
09-10-2019 27 (17:30) 13.2 (00:00) 20.1 7.5 (19:30) 5 (19:30) 0 0 0 0 0
08-10-2019 27.4 (17:10) 10.8 (00:00) 19.1 5 (15:00) 2.78 (15:00) 0 0 0 0 0
07-10-2019 27.6 (17:50) 15 (00:00) 21.3 18.06 (02:00) 11.11 (02:00) 0 0 0 0 0
06-10-2019 26.5 (17:00) 12.2 (00:00) 19.3 15.83 (22:10) 9.72 (23:10) 0 0 0 0 0
05-10-2019 26.3 (17:10) 12.5 (00:00) 19.4 9.44 (02:00) 6.39 (02:00) 0 0 0 0 0
04-10-2019 28.9 (18:10) 10 (00:00) 19.4 8.89 (23:20) 6.39 (23:30) 0 0 0 0 0
03-10-2019 26.5 (17:20) 11.2 (00:00) 18.8 10.83 (01:10) 6.94 (01:10) 0 0 0 0 0
02-10-2019 25 (16:20) 16.9 (00:00) 20.9 18.06 (15:40) 11.11 (15:40) 0 0 0 0 0
01-10-2019 30.5 (17:00) 13.1 (00:00) 21.8 12.5 (23:40) 7.78 (23:40) 0 0 0 0 0
30-09-2019 29.9 (16:20) 12.1 (00:00) 21 5.83 (18:50) 3.61 (16:40) 0 0 0 0 0
29-09-2019 30.4 (17:50) 13.7 (00:00) 22 4.72 (15:30) 3.61 (22:40) 0 0 0 0 0
28-09-2019 28.1 (17:10) 12.5 (00:00) 20.3 6.94 (15:00) 5 (18:50) 0 0 0 0 0
27-09-2019 31.1 (16:40) 13.8 (00:00) 22.5 5 (13:50) 2.78 (14:30) 0 0 0 0 0
26-09-2019 28.6 (17:00) 13.2 (00:00) 20.9 5.28 (14:30) 3.61 (18:10) 0 0 0 0 0
25-09-2019 26.2 (16:00) 18.1 (00:00) 22.2 12.5 (13:00) 7.78 (13:00) 0 0 0 0 0
24-09-2019 31.2 (17:40) 12.4 (00:00) 21.8 6.94 (15:20) 4.44 (22:20) 0 0 0 0 0
23-09-2019 26.9 (16:10) 12.3 (00:00) 19.6 6.39 (15:30) 3.89 (15:00) 0 0 0 0 0
22-09-2019 28.5 (16:00) 18.3 (00:00) 23.4 12.22 (15:40) 7.22 (16:30) 0 0 0 0 0
21-09-2019 28 (15:50) 17.8 (00:00) 22.9 8.06 (19:10) 5.56 (19:10) 3.2 0 3.2 0 0
20-09-2019 29 (15:30) 17.1 (00:00) 23.1 13.33 (18:10) 6.67 (18:20) 0 0 0 0 0
19-09-2019 30.1 (17:00) 16.7 (00:00) 23.4 8.89 (18:30) 5.28 (22:50) 0 0 0 0 0
18-09-2019 31.5 (17:30) 16.4 (00:00) 23.9 15.83 (18:30) 8.33 (18:30) 0 0 0 0 0
17-09-2019 32.3 (17:40) 16.8 (00:00) 24.5 6.94 (22:30) 3.33 (22:30) 0 0 0 0 0
16-09-2019 30 (16:10) 16.4 (00:00) 23.2 5 (16:00) 2.78 (15:20) 0 0 0 0 0

Gráficas

Temp. máximas Temp. mínimas Temp. medias Precipitaciones Rachas de viento máximas Velocidades máximas media en intervalos de 10 minutos

Datos horarios

Fecha y hora oficial Temperatura (ºC) Velocidad del viento (km/h) Dirección del viento Racha (km/h) Dirección de racha Precipitación (mm) Presión (hPa) Tendencia (hPa) Humedad (%)
2019-10-15 23:00:00 11.5 5 Oeste 11 Oeste 0 -- -- 65
2019-10-15 22:00:00 13 9 Oeste 13 Oeste 0 -- -- 58
2019-10-15 21:00:00 14.9 8 Oeste 20 Oeste 0 -- -- 51
2019-10-15 20:00:00 16.2 14 Oeste 28 Oeste 0 -- -- 48
2019-10-15 19:00:00 17.7 17 Oeste 31 Oeste 0 -- -- 44
2019-10-15 18:00:00 19.3 15 Oeste 41 Oeste 0 -- -- 41
2019-10-15 17:00:00 19.5 23 Oeste 45 Oeste 0 -- -- 40
2019-10-15 16:00:00 19.2 28 Oeste 49 Oeste 0 -- -- 41
2019-10-15 15:00:00 18.7 28 Oeste 53 Oeste 0 -- -- 41
2019-10-15 14:00:00 18 30 Oeste 51 Oeste 0 -- -- 44
2019-10-15 13:00:00 16.9 28 Oeste 61 Oeste 0 -- -- 47
2019-10-15 12:00:00 15.8 32 Oeste 61 Oeste 0 -- -- 50
2019-10-15 11:00:00 14.7 32 Oeste 48 Oeste 0 -- -- 55
2019-10-15 10:00:00 13.4 24 Oeste 37 Oeste 0 -- -- 60
2019-10-15 09:00:00 12.2 15 Oeste 35 Oeste 0 -- -- 66
2019-10-15 08:00:00 11.3 10 Oeste 20 Oeste 0 -- -- 71
2019-10-15 07:00:00 11.9 14 Oeste 32 Oeste 0 -- -- 73
2019-10-15 06:00:00 12.6 22 Oeste 31 Oeste 0 -- -- 71
2019-10-15 05:00:00 12.7 18 Oeste 31 Oeste 0 -- -- 66
2019-10-15 04:00:00 13.2 20 Oeste 35 Sudoeste 0 -- -- 67
2019-10-15 03:00:00 13.5 21 Oeste 40 Sudoeste 0 -- -- 68
2019-10-15 02:00:00 14.7 24 Oeste 39 Sudoeste 0 -- -- 64
2019-10-15 01:00:00 14.4 13 Oeste 23 Oeste 0 -- -- 70
2019-10-15 00:00:00 14.7 17 Oeste 34 Oeste 0 -- -- 68
2019-10-14 23:00:00 15.7 25 Oeste 44 Oeste 0.2 -- -- 75
2019-10-14 22:00:00 16.6 8 Sudoeste 15 Oeste 0 -- -- 93
2019-10-14 21:00:00 17 6 Noroeste 15 Oeste 0 -- -- 92
2019-10-14 20:00:00 17.9 10 Sudoeste 50 Sudoeste 8.8 -- -- 87
2019-10-14 19:00:00 21.1 23 Este 40 Este 0 -- -- 76
2019-10-14 18:00:00 21.8 19 Este 38 Este 0 -- -- 78
2019-10-14 17:00:00 21 20 Este 40 Sudeste 0 -- -- 83
2019-10-14 16:00:00 19.9 22 Este 32 Este 1 -- -- 89
2019-10-14 15:00:00 21 4 Nordeste 15 Nordeste 0.2 -- -- 82
2019-10-14 14:00:00 21.4 10 Nordeste 15 Nordeste 0.4 -- -- 83
2019-10-14 13:00:00 21.2 6 Este 31 Este 0.2 -- -- 79
2019-10-14 12:00:00 21.9 15 Este 30 Este 0 -- -- 71
2019-10-14 11:00:00 20.6 17 Este 32 Este 0 -- -- 75
2019-10-14 10:00:00 19.7 5 Sudeste 22 Sudeste 0 -- -- 78
2019-10-14 09:00:00 18.5 10 Sudeste 23 Este 0 -- -- 81
2019-10-14 08:00:00 18.2 12 Este 30 Este 0 -- -- 82
2019-10-14 07:00:00 18.2 10 Sudeste 26 Sudeste 0 -- -- 82
2019-10-14 06:00:00 18.5 17 Este 27 Este 0 -- -- 81
2019-10-14 05:00:00 18.3 11 Este 24 Este 0 -- -- 82
2019-10-14 04:00:00 18.6 15 Este 25 Este 0 -- -- 82
2019-10-14 03:00:00 18.8 19 Este 28 Este 0 -- -- 81
2019-10-14 02:00:00 18.9 11 Este 23 Este 0 -- -- 81
2019-10-14 01:00:00 19.5 14 Este 25 Este 0 -- -- 79
2019-10-14 00:00:00 19.6 12 Este 22 Este 0 -- -- 78
2019-10-13 23:00:00 20.9 16 Este 27 Este 0 -- -- 75
2019-10-13 22:00:00 21.3 18 Este 38 Este 0 -- -- 75
2019-10-13 21:00:00 22.2 21 Este 34 Este 0 -- -- 70
2019-10-13 20:00:00 23.2 13 Sudeste 24 Sudeste 0 -- -- 65
2019-10-13 19:00:00 24.6 18 Este 30 Este 0 -- -- 60
2019-10-13 18:00:00 26.3 20 Este 39 Este 0 -- -- 54
2019-10-13 17:00:00 27.2 21 Este 35 Sudeste 0 -- -- 52
2019-10-13 16:00:00 27.4 17 Este 33 Este 0 -- -- 51
2019-10-13 15:00:00 27.2 17 Este 34 Este 0 -- -- 52
2019-10-13 14:00:00 26.4 20 Este 35 Este 0 -- -- 55
2019-10-13 13:00:00 25.2 16 Este 31 Nordeste 0 -- -- 61
2019-10-13 12:00:00 24.6 15 Este 27 Nordeste 0 -- -- 63
2019-10-13 11:00:00 22.7 9 Este 19 Este 0 -- -- 70
2019-10-13 10:00:00 20.4 12 Este 25 Este 0 -- -- 76
2019-10-13 09:00:00 19.2 10 Este 24 Este 0 -- -- 81
2019-10-13 08:00:00 19.2 17 Este 23 Este 0 -- -- 80
2019-10-13 07:00:00 19.1 19 Este 28 Este 0 -- -- 80
2019-10-13 06:00:00 19.3 21 Este 31 Este 0 -- -- 79
2019-10-13 05:00:00 18.6 8 Este 13 Nordeste 0 -- -- 81
2019-10-13 04:00:00 19.1 8 Este 15 Nordeste 0 -- -- 79
2019-10-13 03:00:00 19.4 4 Nordeste 18 Este 0 -- -- 78
2019-10-13 02:00:00 19.3 12 Este 21 Este 0 -- -- 78
2019-10-13 01:00:00 19.2 10 Nordeste 26 Este 0 -- -- 79
2019-10-13 00:00:00 20 16 Este 22 Este 0 -- -- 77
2019-10-12 23:00:00 20.7 8 Este 26 Sudeste 0 -- -- 72
2019-10-12 22:00:00 21.1 9 Este 28 Este 0 -- -- 71
2019-10-12 21:00:00 22 15 Este 32 Sudeste 0 -- -- 68
2019-10-12 20:00:00 22.6 23 Este 45 Este 0 -- -- 66
2019-10-12 19:00:00 23.6 23 Este 40 Este 0 -- -- 64
2019-10-12 18:00:00 25 22 Este 39 Este 0 -- -- 60
2019-10-12 17:00:00 25.9 23 Este 48 Este 0 -- -- 57
2019-10-12 16:00:00 26 26 Este 42 Sudeste 0 -- -- 57
2019-10-12 15:00:00 26.6 28 Este 45 Este 0 -- -- 54
2019-10-12 14:00:00 27.1 21 Sudeste 36 Este 0 -- -- 52
2019-10-12 13:00:00 25.8 23 Este 34 Este 0 -- -- 55
2019-10-12 12:00:00 24.7 19 Este 33 Este 0 -- -- 60
2019-10-12 11:00:00 22.6 17 Este 28 Este 0 -- -- 70
2019-10-12 10:00:00 19.6 7 Este 11 Este 0 -- -- 81
2019-10-12 09:00:00 18 3 Este 8 Nordeste 0 -- -- 86
2019-10-12 08:00:00 18.2 5 Nordeste 13 Nordeste 0 -- -- 86
2019-10-12 07:00:00 17.3 3 Sudeste 6 Sudeste 0 -- -- 89
2019-10-12 06:00:00 18.2 2 Noroeste 18 Nordeste 0 -- -- 85
2019-10-12 05:00:00 18.3 11 Este 18 Este 0 -- -- 86
2019-10-12 04:00:00 18.4 10 Nordeste 18 Nordeste 0 -- -- 86
2019-10-12 03:00:00 18.7 13 Este 19 Este 0 -- -- 84
2019-10-12 02:00:00 18.9 8 Nordeste 18 Nordeste 0 -- -- 83
2019-10-12 01:00:00 20 7 Este 21 Este 0 -- -- 80
2019-10-12 00:00:00 20.4 7 Este 23 Este 0 -- -- 80
2019-10-11 23:00:00 20.6 11 Este 32 Este 0 -- -- 79
2019-10-11 22:00:00 21.5 17 Este 28 Este 0 -- -- 76
2019-10-11 21:00:00 22 5 Este 23 Sudeste 0 -- -- 73
2019-10-11 20:00:00 23.3 19 Este 34 Este 0 -- -- 69
2019-10-11 19:00:00 25.1 14 Este 25 Este 0 -- -- 61
2019-10-11 18:00:00 26.7 16 Este 28 Este 0 -- -- 55
2019-10-11 17:00:00 26.8 12 Este 22 Este 0 -- -- 54
2019-10-11 16:00:00 25.8 12 Este 20 Este 0 -- -- 56
2019-10-11 15:00:00 24.9 13 Este 21 Nordeste 0 -- -- 57
2019-10-11 14:00:00 23 8 Este 16 Este 0 -- -- 60
2019-10-11 13:00:00 20.9 7 Nordeste 13 Nordeste 0 -- -- 60
2019-10-11 12:00:00 18.3 6 Nordeste 12 Nordeste 0 -- -- 61
2019-10-11 11:00:00 15.1 8 Nordeste 11 Nordeste 0 -- -- 70
2019-10-11 10:00:00 13.2 3 Nordeste 5 Nordeste 0 -- -- 78
2019-10-11 09:00:00 11.8 2 Este 5 Este 0 -- -- 84
2019-10-11 08:00:00 11.8 0 Calma 3 Sudeste 0 -- -- 82
2019-10-11 07:00:00 11.3 0 Calma 5 Este 0 -- -- 85
2019-10-11 06:00:00 11.5 3 Este 5 Este 0 -- -- 85
2019-10-11 05:00:00 10.9 0 Calma 3 Norte 0 -- -- 86
2019-10-11 04:00:00 11.1 2 Este 5 Este 0 -- -- 84
2019-10-11 03:00:00 11.9 4 Nordeste 5 Nordeste 0 -- -- 81
2019-10-11 02:00:00 12.9 3 Noroeste 5 Norte 0 -- -- 83
2019-10-11 01:00:00 14 0 Calma 4 Nordeste 0 -- -- 75
2019-10-11 00:00:00 14.5 0 Calma 4 Norte 0 -- -- 77
2019-10-10 23:00:00 15.2 0 Calma 6 Oeste 0 -- -- 71
2019-10-10 22:00:00 16.7 0 Calma 6 Nordeste 0 -- -- 62
2019-10-10 21:00:00 19 4 Norte 15 Nordeste 0 -- -- 57
2019-10-10 20:00:00 20 8 Nordeste 14 Este 0 -- -- 53
2019-10-10 19:00:00 22.2 12 Este 18 Este 0 -- -- 45
2019-10-10 18:00:00 23.2 10 Este 17 Este 0 -- -- 41
2019-10-10 17:00:00 24.3 7 Sudoeste 17 Este 0 -- -- 39
2019-10-10 16:00:00 22.7 9 Nordeste 18 Este 0 -- -- 44
2019-10-10 15:00:00 22 7 Nordeste 14 Nordeste 0 -- -- 45
2019-10-10 14:00:00 20.3 7 Nordeste 16 Nordeste 0 -- -- 50
2019-10-10 13:00:00 19.3 6 Nordeste 14 Nordeste 0 -- -- 52
2019-10-10 12:00:00 17.6 7 Este 13 Nordeste 0 -- -- 59
2019-10-10 11:00:00 15.4 9 Nordeste 13 Nordeste 0 -- -- 65
2019-10-10 10:00:00 12.8 6 Este 10 Nordeste 0 -- -- 75
2019-10-10 09:00:00 11.5 5 Nordeste 9 Nordeste 0 -- -- 78
2019-10-10 08:00:00 11.6 2 Sudoeste 7 Oeste 0 -- -- 76
2019-10-10 07:00:00 11.5 0 Calma 13 Oeste 0 -- -- 74
2019-10-10 06:00:00 10.3 4 Oeste 8 Oeste 0 -- -- 77
2019-10-10 05:00:00 11.9 5 Noroeste 11 Oeste 0 -- -- 72
2019-10-10 04:00:00 13 8 Sudoeste 11 Sudoeste 0 -- -- 68
2019-10-10 03:00:00 13.7 6 Oeste 14 Sudoeste 0 -- -- 66
2019-10-10 02:00:00 14.2 8 Oeste 14 Sudoeste 0 -- -- 64
2019-10-10 01:00:00 13.9 3 Sur 8 Oeste 0 -- -- 65
2019-10-10 00:00:00 14.9 8 Oeste 11 Oeste 0 -- -- 63
2019-10-09 23:00:00 16.3 2 Sudoeste 9 Oeste 0 -- -- 59
2019-10-09 22:00:00 18.6 5 Oeste 21 Oeste 0 -- -- 52
2019-10-09 21:00:00 19.8 12 Noroeste 16 Noroeste 0 -- -- 48
2019-10-09 20:00:00 21.6 9 Oeste 27 Noroeste 0 -- -- 46
2019-10-09 19:00:00 24.5 17 Oeste 26 Oeste 0 -- -- 43
2019-10-09 18:00:00 26.6 14 Noroeste 24 Oeste 0 -- -- 43
2019-10-09 17:00:00 26.6 9 Oeste 22 Oeste 0 -- -- 49
2019-10-09 16:00:00 25.9 15 Noroeste 24 Oeste 0 -- -- 52
2019-10-09 15:00:00 24.6 10 Oeste 17 Sudoeste 0 -- -- 58
2019-10-09 14:00:00 23.2 9 Noroeste 18 Oeste 0 -- -- 61
2019-10-09 13:00:00 21.1 7 Oeste 12 Noroeste 0 -- -- 65
2019-10-09 12:00:00 19 6 Nordeste 12 Nordeste 0 -- -- 69
2019-10-09 11:00:00 18.4 6 Oeste 12 Oeste 0 -- -- 67
2019-10-09 10:00:00 16.9 4 Sudoeste 8 Sudoeste 0 -- -- 72
2019-10-09 09:00:00 14.6 3 Sur 7 Este 0 -- -- 80
2019-10-09 08:00:00 14.1 3 Noroeste 8 Noroeste 0 -- -- 81
2019-10-09 07:00:00 13.8 2 Este 6 Este 0 -- -- 82
2019-10-09 06:00:00 13.5 2 Norte 5 Noroeste 0 -- -- 82
2019-10-09 05:00:00 13.6 3 Norte 6 Noroeste 0 -- -- 82
2019-10-09 04:00:00 13.9 2 Noroeste 7 Nordeste 0 -- -- 79
2019-10-09 03:00:00 14.6 0 Calma 6 Oeste 0 -- -- 77
2019-10-09 02:00:00 15.3 3 Noroeste 6 Nordeste 0 -- -- 78
2019-10-09 01:00:00 16.8 0 Calma 5 Noroeste 0 -- -- 78
2019-10-09 00:00:00 17.7 3 Este 5 Este 0 -- -- 68
2019-10-08 23:00:00 18.6 0 Calma 4 Este 0 -- -- 66
2019-10-08 22:00:00 20 0 Calma 6 Noroeste 0 -- -- 62
2019-10-08 21:00:00 21.9 0 Calma 9 Este 0 -- -- 50
2019-10-08 20:00:00 23.3 2 Noroeste 10 Nordeste 0 -- -- 38
2019-10-08 19:00:00 26 7 Nordeste 11 Nordeste 0 -- -- 33
2019-10-08 18:00:00 27.1 8 Nordeste 13 Nordeste 0 -- -- 30
2019-10-08 17:00:00 27.2 4 Nordeste 13 Este 0 -- -- 29
2019-10-08 16:00:00 26.9 8 Nordeste 15 Nordeste 0 -- -- 29
2019-10-08 15:00:00 26 10 Nordeste 18 Nordeste 0 -- -- 30
2019-10-08 14:00:00 25.1 6 Este 14 Este 0 -- -- 32
2019-10-08 13:00:00 22.9 7 Este 14 Nordeste 0 -- -- 37
2019-10-08 12:00:00 20.2 6 Nordeste 14 Nordeste 0 -- -- 47
2019-10-08 11:00:00 17.3 6 Nordeste 14 Nordeste 0 -- -- 60
2019-10-08 10:00:00 14.6 9 Nordeste 14 Nordeste 0 -- -- 67
2019-10-08 09:00:00 11.7 0 Calma 7 Oeste 0 -- -- 67
2019-10-08 08:00:00 11.3 8 Noroeste 12 Noroeste 0 -- -- 68
2019-10-08 07:00:00 11.4 2 Sudoeste 7 Noroeste 0 -- -- 67
2019-10-08 06:00:00 12.3 5 Noroeste 10 Oeste 0 -- -- 64
2019-10-08 05:00:00 12.8 2 Oeste 9 Oeste 0 -- -- 64
2019-10-08 04:00:00 13.6 0 Calma 6 Noroeste 0 -- -- 60
2019-10-08 03:00:00 14.7 6 Oeste 12 Noroeste 0 -- -- 58
2019-10-08 02:00:00 15.3 8 Oeste 10 Oeste 0 -- -- 59
2019-10-08 01:00:00 16.4 7 Oeste 10 Sudoeste 0 -- -- 55
2019-10-08 00:00:00 17.8 8 Oeste 12 Sudoeste 0 -- -- 51
2019-10-07 23:00:00 19.3 4 Oeste 17 Sudoeste 0 -- -- 49
2019-10-07 22:00:00 21.4 9 Oeste 15 Oeste 0 -- -- 44
2019-10-07 21:00:00 22.3 2 Nordeste 12 Oeste 0 -- -- 42
2019-10-07 20:00:00 23.6 8 Oeste 11 Oeste 0 -- -- 39
2019-10-07 19:00:00 26.4 8 Oeste 27 Oeste 0 -- -- 34
2019-10-07 18:00:00 27.6 10 Oeste 26 Oeste 0 -- -- 32
2019-10-07 17:00:00 26.7 15 Oeste 27 Oeste 0 -- -- 32
2019-10-07 16:00:00 25.2 13 Noroeste 28 Noroeste 0 -- -- 35
2019-10-07 15:00:00 24.4 11 Noroeste 26 Noroeste 0 -- -- 37
2019-10-07 14:00:00 23.4 15 Noroeste 29 Oeste 0 -- -- 38
2019-10-07 13:00:00 21.2 15 Noroeste 29 Oeste 0 -- -- 43
2019-10-07 12:00:00 19.9 17 Oeste 30 Oeste 0 -- -- 47
2019-10-07 11:00:00 18.8 12 Noroeste 24 Noroeste 0 -- -- 50
2019-10-07 10:00:00 17 17 Oeste 30 Oeste 0 -- -- 58
2019-10-07 09:00:00 15.6 6 Oeste 38 Oeste 0 -- -- 62
2019-10-07 08:00:00 15.1 22 Oeste 42 Oeste 0 -- -- 62
2019-10-07 07:00:00 15.2 24 Oeste 46 Oeste 0 -- -- 59
2019-10-07 06:00:00 15.4 25 Oeste 47 Oeste 0 -- -- 57
2019-10-07 05:00:00 15.7 17 Oeste 50 Oeste 0 -- -- 56
2019-10-07 04:00:00 16.4 27 Oeste 55 Oeste 0 -- -- 54
2019-10-07 03:00:00 17.3 36 Oeste 59 Oeste 0 -- -- 52
2019-10-07 02:00:00 18 40 Oeste 65 Oeste 0 -- -- 52
2019-10-07 01:00:00 18.8 29 Oeste 52 Oeste 0 -- -- 50
2019-10-07 00:00:00 19.2 24 Oeste 56 Oeste 0 -- -- 50
2019-10-06 23:00:00 19.9 33 Oeste 57 Oeste 0 -- -- 47
2019-10-06 22:00:00 20.6 27 Oeste 45 Oeste 0 -- -- 49
2019-10-06 21:00:00 21.2 15 Sudoeste 32 Sudoeste 0 -- -- 50
2019-10-06 20:00:00 22.4 17 Oeste 45 Oeste 0 -- -- 48
2019-10-06 19:00:00 23.7 19 Oeste 49 Oeste 0 -- -- 47
2019-10-06 18:00:00 25.5 30 Oeste 46 Oeste 0 -- -- 41
2019-10-06 17:00:00 26.5 18 Oeste 30 Noroeste 0 -- -- 41
2019-10-06 16:00:00 25.3 15 Noroeste 27 Oeste 0 -- -- 40
2019-10-06 15:00:00 22.7 7 Nordeste 15 Nordeste 0 -- -- 47
2019-10-06 14:00:00 22.4 7 Nordeste 17 Este 0 -- -- 49
2019-10-06 13:00:00 21.1 5 Nordeste 14 Este 0 -- -- 53
2019-10-06 12:00:00 19.4 6 Sudoeste 18 Noroeste 0 -- -- 59
2019-10-06 11:00:00 17.7 14 Oeste 23 Oeste 0 -- -- 64
2019-10-06 10:00:00 16.2 12 Oeste 22 Oeste 0 -- -- 72
2019-10-06 09:00:00 14.1 5 Oeste 14 Sudoeste 0 -- -- 81
2019-10-06 08:00:00 12.9 8 Sudoeste 15 Oeste 0 -- -- 83
2019-10-06 07:00:00 12.6 0 Calma 12 Sudoeste 0 -- -- 83
2019-10-06 06:00:00 12.6 9 Oeste 14 Oeste 0 -- -- 80
2019-10-06 05:00:00 13.6 8 Oeste 13 Sudoeste 0 -- -- 81
2019-10-06 04:00:00 13 0 Calma 5 Oeste 0 -- -- 82
2019-10-06 03:00:00 13.7 3 Sur 5 Nordeste 0 -- -- 79
2019-10-06 02:00:00 15.2 3 Oeste 7 Noroeste 0 -- -- 76
2019-10-06 01:00:00 15.7 4 Oeste 6 Oeste 0 -- -- 73
2019-10-06 00:00:00 16.9 3 Oeste 6 Oeste 0 -- -- 69
2019-10-05 23:00:00 18.2 6 Oeste 9 Oeste 0 -- -- 65
2019-10-05 22:00:00 20.2 2 Norte 10 Norte 0 -- -- 59
2019-10-05 21:00:00 21 0 Calma 9 Nordeste 0 -- -- 52
2019-10-05 20:00:00 23.4 6 Nordeste 13 Este 0 -- -- 48
2019-10-05 19:00:00 25.2 6 Nordeste 11 Este 0 -- -- 42
2019-10-05 18:00:00 25.9 9 Este 14 Nordeste 0 -- -- 41
2019-10-05 17:00:00 26 8 Nordeste 17 Este 0 -- -- 40
2019-10-05 16:00:00 25.8 9 Nordeste 17 Este 0 -- -- 41
2019-10-05 15:00:00 25.1 9 Nordeste 15 Nordeste 0 -- -- 42
2019-10-05 14:00:00 24 8 Noroeste 18 Noroeste 0 -- -- 43
2019-10-05 13:00:00 22.6 5 Oeste 19 Noroeste 0 -- -- 49
2019-10-05 12:00:00 21.1 8 Noroeste 24 Oeste 0 -- -- 54
2019-10-05 11:00:00 19.2 10 Oeste 18 Oeste 0 -- -- 60
2019-10-05 10:00:00 17.8 3 Sur 9 Sudoeste 0 -- -- 68
2019-10-05 09:00:00 14.1 4 Oeste 8 Oeste 0 -- -- 81
2019-10-05 08:00:00 12.6 4 Sudoeste 10 Sudoeste 0 -- -- 83
2019-10-05 07:00:00 13.6 9 Sudoeste 17 Oeste 0 -- -- 79
2019-10-05 06:00:00 14.5 9 Oeste 13 Oeste 0 -- -- 75
2019-10-05 05:00:00 14.9 0 Calma 12 Oeste 0 -- -- 72
2019-10-05 04:00:00 16.7 5 Norte 12 Nordeste 0 -- -- 65
2019-10-05 03:00:00 19.2 3 Sudoeste 30 Oeste 0 -- -- 58
2019-10-05 02:00:00 21.1 23 Oeste 34 Oeste 0 -- -- 53
2019-10-05 01:00:00 21.6 8 Oeste 23 Sudoeste 0 -- -- 53
2019-10-05 00:00:00 21.6 11 Oeste 32 Oeste 0 -- -- 55
2019-10-04 23:00:00 22.8 19 Oeste 28 Oeste 0 -- -- 53
2019-10-04 22:00:00 22.1 9 Oeste 14 Noroeste 0 -- -- 54
2019-10-04 21:00:00 22.4 8 Oeste 12 Oeste 0 -- -- 52
2019-10-04 20:00:00 23.5 8 Oeste 11 Oeste 0 -- -- 50
2019-10-04 19:00:00 27.5 9 Oeste 21 Oeste 0 -- -- 40
2019-10-04 18:00:00 28.5 5 Norte 15 Nordeste 0 -- -- 37
2019-10-04 17:00:00 27.8 9 Este 17 Este 0 -- -- 41
2019-10-04 16:00:00 27.2 10 Nordeste 16 Nordeste 0 -- -- 41
2019-10-04 15:00:00 25.2 8 Este 16 Este 0 -- -- 44
2019-10-04 14:00:00 23.2 9 Nordeste 15 Nordeste 0 -- -- 46
2019-10-04 13:00:00 21.5 7 Nordeste 17 Nordeste 0 -- -- 48
2019-10-04 12:00:00 19.5 8 Este 13 Este 0 -- -- 51
2019-10-04 11:00:00 16.5 7 Nordeste 12 Este 0 -- -- 58
2019-10-04 10:00:00 13.7 6 Nordeste 10 Este 0 -- -- 65
2019-10-04 09:00:00 11.1 3 Este 6 Este 0 -- -- 75
2019-10-04 08:00:00 10.4 7 Noroeste 16 Oeste 0 -- -- 68
2019-10-04 07:00:00 10.4 6 Noroeste 11 Oeste 0 -- -- 73
2019-10-04 06:00:00 10.8 0 Calma 8 Nordeste 0 -- -- 74
2019-10-04 05:00:00 11.4 3 Sudeste 9 Nordeste 0 -- -- 72
2019-10-04 04:00:00 12.1 5 Este 10 Nordeste 0 -- -- 70
2019-10-04 03:00:00 15.2 11 Noroeste 18 Oeste 0 -- -- 55
2019-10-04 02:00:00 14.3 9 Oeste 17 Oeste 0 -- -- 55
2019-10-04 01:00:00 14.2 5 Oeste 12 Oeste 0 -- -- 54
2019-10-04 00:00:00 15.2 6 Oeste 10 Oeste 0 -- -- 54
2019-10-03 23:00:00 17.8 4 Oeste 15 Oeste 0 -- -- 48
2019-10-03 22:00:00 17.9 6 Oeste 9 Oeste 0 -- -- 46
2019-10-03 21:00:00 18.7 3 Sudoeste 10 Noroeste 0 -- -- 36
2019-10-03 20:00:00 21.5 3 Oeste 9 Oeste 0 -- -- 40
2019-10-03 19:00:00 24.6 6 Nordeste 13 Este 0 -- -- 35
2019-10-03 18:00:00 25.4 10 Este 15 Nordeste 0 -- -- 34
2019-10-03 17:00:00 26 6 Noroeste 19 Noroeste 0 -- -- 33
2019-10-03 16:00:00 25.2 11 Noroeste 21 Oeste 0 -- -- 33
2019-10-03 15:00:00 23.6 10 Nordeste 19 Noroeste 0 -- -- 42
2019-10-03 14:00:00 22 10 Oeste 19 Oeste 0 -- -- 47
2019-10-03 13:00:00 20.1 6 Noroeste 26 Noroeste 0 -- -- 54
2019-10-03 12:00:00 17.4 14 Noroeste 28 Noroeste 0 -- -- 60
2019-10-03 11:00:00 16 14 Oeste 21 Oeste 0 -- -- 69
2019-10-03 10:00:00 14.3 7 Oeste 12 Oeste 0 -- -- 74
2019-10-03 09:00:00 11.8 9 Oeste 14 Sudoeste 0 -- -- 82
2019-10-03 08:00:00 11.6 9 Sudoeste 14 Oeste 0 -- -- 83
2019-10-03 07:00:00 11.6 9 Oeste 13 Oeste 0 -- -- 81
2019-10-03 06:00:00 11.3 8 Oeste 14 Sudoeste 0 -- -- 80
2019-10-03 05:00:00 11.6 9 Oeste 14 Sudoeste 0 -- -- 78
2019-10-03 04:00:00 13.3 11 Sudoeste 18 Sudoeste 0 -- -- 74
2019-10-03 03:00:00 14.7 9 Oeste 14 Sur 0 -- -- 68
2019-10-03 02:00:00 16.1 9 Sudoeste 39 Oeste 0 -- -- 64
2019-10-03 01:00:00 16.6 21 Oeste 33 Noroeste 0 -- -- 63
2019-10-03 00:00:00 16.9 14 Oeste 36 Noroeste 0 -- -- 64
2019-10-02 23:00:00 17.8 25 Oeste 43 Oeste 0 -- -- 61
2019-10-02 22:00:00 18.5 30 Oeste 59 Oeste 0 -- -- 60
2019-10-02 21:00:00 19.6 35 Oeste 51 Oeste 0 -- -- 55
2019-10-02 20:00:00 20.5 32 Oeste 49 Oeste 0 -- -- 54
2019-10-02 19:00:00 22.4 29 Oeste 59 Oeste 0 -- -- 48
2019-10-02 18:00:00 23.8 35 Oeste 58 Oeste 0 -- -- 45
2019-10-02 17:00:00 24.6 36 Oeste 58 Oeste 0 -- -- 42
2019-10-02 16:00:00 24.9 32 Oeste 65 Oeste 0 -- -- 43
2019-10-02 15:00:00 24.6 38 Oeste 60 Oeste 0 -- -- 43
2019-10-02 14:00:00 24.3 37 Noroeste 58 Noroeste 0 -- -- 43
2019-10-02 13:00:00 22.9 33 Noroeste 58 Oeste 0 -- -- 48
2019-10-02 12:00:00 21.5 33 Noroeste 60 Oeste 0 -- -- 51
2019-10-02 11:00:00 20.2 35 Noroeste 62 Noroeste 0 -- -- 53
2019-10-02 10:00:00 19 32 Noroeste 55 Oeste 0 -- -- 56
2019-10-02 09:00:00 17.8 30 Oeste 55 Oeste 0 -- -- 58
2019-10-02 08:00:00 17.6 21 Oeste 53 Oeste 0 -- -- 57
2019-10-02 07:00:00 18.2 33 Oeste 51 Oeste 0 -- -- 54
2019-10-02 06:00:00 18.6 23 Oeste 42 Oeste 0 -- -- 55
2019-10-02 05:00:00 18.8 19 Oeste 36 Oeste 0 -- -- 58
2019-10-02 04:00:00 19.4 14 Oeste 42 Oeste 0 -- -- 57
2019-10-02 03:00:00 20.5 18 Oeste 38 Noroeste 0 -- -- 52
2019-10-02 02:00:00 21.2 24 Oeste 39 Oeste 0 -- -- 50
2019-10-02 01:00:00 21.6 22 Oeste 44 Noroeste 0 -- -- 49
2019-10-02 00:00:00 22.4 25 Oeste 45 Oeste 0 -- -- 47
2019-10-01 23:00:00 23.1 10 Oeste 32 Oeste 0 -- -- 47
2019-10-01 22:00:00 24.5 21 Oeste 39 Oeste 0 -- -- 44
2019-10-01 21:00:00 25.1 17 Oeste 28 Oeste 0 -- -- 47
2019-10-01 20:00:00 26.4 12 Oeste 27 Noroeste 0 -- -- 43
2019-10-01 19:00:00 28.9 16 Oeste 35 Noroeste 0 -- -- 39
2019-10-01 18:00:00 30.3 15 Oeste 24 Oeste 0 -- -- 37
2019-10-01 17:00:00 30.5 5 Noroeste 19 Oeste 0 -- -- 41
2019-10-01 16:00:00 29.3 9 Nordeste 22 Norte 0 -- -- 48
2019-10-01 15:00:00 27.4 9 Este 14 Nordeste 0 -- -- 55
2019-10-01 14:00:00 25.2 7 Nordeste 13 Este 0 -- -- 62
2019-10-01 13:00:00 22.4 6 Nordeste 13 Este 0 -- -- 72
2019-10-01 12:00:00 21.2 9 Este 14 Nordeste 0 -- -- 76
2019-10-01 11:00:00 18.6 7 Nordeste 10 Nordeste 0 -- -- 82
2019-10-01 10:00:00 16.2 6 Nordeste 9 Nordeste 0 -- -- 88
2019-10-01 09:00:00 14.3 3 Este 6 Oeste 0 -- -- 93
2019-10-01 08:00:00 13.1 4 Norte 6 Noroeste 0 -- -- 93
2019-10-01 07:00:00 13.8 0 Calma 5 Noroeste 0 -- -- 93
2019-10-01 06:00:00 14.1 5 Este 7 Oeste 0 -- -- 92
2019-10-01 05:00:00 14.6 3 Oeste 6 Nordeste 0 -- -- 90
2019-10-01 04:00:00 15.6 0 Calma 6 Nordeste 0 -- -- 90
2019-10-01 03:00:00 16.6 0 Calma 5 Nordeste 0 -- -- 87
2019-10-01 02:00:00 17.5 0 Calma 5 Noroeste 0 -- -- 86
2019-10-01 01:00:00 18.3 0 Calma 3 Noroeste 0 -- -- 85
2019-10-01 00:00:00 19.2 0 Calma 5 Nordeste 0 -- -- 80
2019-09-30 23:00:00 21 3 Este 12 Sudoeste 0 -- -- 72
2019-09-30 22:00:00 22.5 6 Sudoeste 9 Sudoeste 0 -- -- 69
2019-09-30 21:00:00 24.3 6 Sudoeste 14 Sudeste 0 -- -- 62
2019-09-30 20:00:00 26.3 8 Sudeste 20 Sudeste 0 -- -- 55
2019-09-30 19:00:00 28.8 12 Este 21 Este 0 -- -- 47
2019-09-30 18:00:00 29.9 9 Este 17 Este 0 -- -- 35
2019-09-30 17:00:00 29.8 13 Este 20 Este 0 -- -- 34
2019-09-30 16:00:00 29.8 10 Este 19 Este 0 -- -- 34
2019-09-30 15:00:00 28.9 7 Nordeste 16 Este 0 -- -- 37
2019-09-30 14:00:00 27.2 8 Este 15 Este 0 -- -- 42
2019-09-30 13:00:00 25.2 9 Este 14 Este 0 -- -- 46
2019-09-30 12:00:00 23 8 Este 14 Nordeste 0 -- -- 52
2019-09-30 11:00:00 20.3 5 Nordeste 10 Nordeste 0 -- -- 58
2019-09-30 10:00:00 17.5 3 Este 5 Este 0 -- -- 62
2019-09-30 09:00:00 14.1 0 Calma 4 Oeste 0 -- -- 71
2019-09-30 08:00:00 12.1 2 Este 8 Oeste 0 -- -- 75
2019-09-30 07:00:00 12.7 3 Oeste 5 Oeste 0 -- -- 72
2019-09-30 06:00:00 13.5 0 Calma 6 Noroeste 0 -- -- 70
2019-09-30 05:00:00 14 5 Noroeste 7 Noroeste 0 -- -- 68
2019-09-30 04:00:00 15.1 3 Norte 8 Oeste 0 -- -- 66
2019-09-30 03:00:00 15.2 4 Oeste 8 Noroeste 0 -- -- 65
2019-09-30 02:00:00 16.6 3 Oeste 6 Oeste 0 -- -- 60
2019-09-30 01:00:00 17.5 0 Calma 6 Nordeste 0 -- -- 56
2019-09-30 00:00:00 18.7 2 Noroeste 8 Nordeste 0 -- -- 58
2019-09-29 23:00:00 21.3 8 Oeste 15 Oeste 0 -- -- 52
2019-09-29 22:00:00 22 10 Oeste 15 Sudoeste 0 -- -- 52
2019-09-29 21:00:00 22.9 0 Calma 6 Noroeste 0 -- -- 51
2019-09-29 20:00:00 25.9 2 Oeste 6 Noroeste 0 -- -- 45
2019-09-29 19:00:00 30 2 Nordeste 9 Este 0 -- -- 37
2019-09-29 18:00:00 30.4 6 Nordeste 13 Este 0 -- -- 38
2019-09-29 17:00:00 30.1 10 Este 13 Este 0 -- -- 41
2019-09-29 16:00:00 29.6 9 Este 17 Nordeste 0 -- -- 43
2019-09-29 15:00:00 28.7 8 Oeste 16 Oeste 0 -- -- 45
2019-09-29 14:00:00 25.9 8 Nordeste 14 Nordeste 0 -- -- 62
2019-09-29 13:00:00 23.6 9 Este 17 Nordeste 0 -- -- 70
2019-09-29 12:00:00 22 8 Nordeste 13 Este 0 -- -- 74
2019-09-29 11:00:00 18.5 4 Este 11 Nordeste 0 -- -- 82
2019-09-29 10:00:00 17.1 4 Nordeste 6 Nordeste 0 -- -- 83
2019-09-29 09:00:00 15.2 0 Calma 7 Este 0 -- -- 91
2019-09-29 08:00:00 13.9 3 Oeste 6 Oeste 0 -- -- 94
2019-09-29 07:00:00 14 3 Oeste 4 Noroeste 0 -- -- 93
2019-09-29 06:00:00 14.3 3 Noroeste 5 Noroeste 0 -- -- 92
2019-09-29 05:00:00 14.7 4 Noroeste 6 Nordeste 0 -- -- 92
2019-09-29 04:00:00 15.7 0 Calma 4 Nordeste 0 -- -- 89
2019-09-29 03:00:00 16.7 0 Calma 3 Nordeste 0 -- -- 89
2019-09-29 02:00:00 17.5 0 Calma 3 Sudoeste 0 -- -- 90
2019-09-29 01:00:00 18.1 0 Calma 2 Noroeste 0 -- -- 87
2019-09-29 00:00:00 18.7 0 Calma 5 Nordeste 0 -- -- 82
2019-09-28 23:00:00 20.2 3 Nordeste 7 Sudoeste 0 -- -- 76
2019-09-28 22:00:00 21.9 3 Sudoeste 8 Sudoeste 0 -- -- 72
2019-09-28 21:00:00 23.5 6 Sudeste 13 Sudeste 0 -- -- 66
2019-09-28 20:00:00 25.2 7 Este 23 Este 0 -- -- 59
2019-09-28 19:00:00 26.7 13 Este 24 Este 0 -- -- 53
2019-09-28 18:00:00 28 11 Este 20 Nordeste 0 -- -- 45
2019-09-28 17:00:00 28 12 Nordeste 24 Este 0 -- -- 43
2019-09-28 16:00:00 27.5 9 Este 21 Este 0 -- -- 44
2019-09-28 15:00:00 27.5 9 Sur 25 Sur 0 -- -- 40
2019-09-28 14:00:00 26.3 7 Este 17 Sur 0 -- -- 42
2019-09-28 13:00:00 24.3 7 Sudeste 16 Sudoeste 0 -- -- 49
2019-09-28 12:00:00 21.7 8 Nordeste 14 Nordeste 0 -- -- 57
2019-09-28 11:00:00 19.6 6 Nordeste 11 Este 0 -- -- 62
2019-09-28 10:00:00 17.4 6 Este 10 Nordeste 0 -- -- 68
2019-09-28 09:00:00 14.5 2 Norte 9 Oeste 0 -- -- 74
2019-09-28 08:00:00 12.6 6 Oeste 10 Oeste 0 -- -- 82
2019-09-28 07:00:00 13 2 Noroeste 8 Oeste 0 -- -- 79
2019-09-28 06:00:00 13.6 0 Calma 10 Noroeste 0 -- -- 74
2019-09-28 05:00:00 14.1 5 Oeste 9 Oeste 0 -- -- 73
2019-09-28 04:00:00 14.5 3 Oeste 8 Nordeste 0 -- -- 74
2019-09-28 03:00:00 15.8 3 Noroeste 9 Noroeste 0 -- -- 71
2019-09-28 02:00:00 17.5 3 Oeste 9 Oeste 0 -- -- 67
2019-09-28 01:00:00 17.8 5 Oeste 10 Oeste 0 -- -- 66
2019-09-28 00:00:00 18.5 6 Noroeste 9 Noroeste 0 -- -- 55
2019-09-27 23:00:00 20.4 0 Calma 14 Oeste 0 -- -- 51
2019-09-27 22:00:00 21.4 7 Oeste 10 Oeste 0 -- -- 51
2019-09-27 21:00:00 23 6 Noroeste 8 Oeste 0 -- -- 46
2019-09-27 20:00:00 26.5 4 Noroeste 15 Noroeste 0 -- -- 40
2019-09-27 19:00:00 30.1 7 Noroeste 12 Nordeste 0 -- -- 35
2019-09-27 18:00:00 30.3 5 Nordeste 16 Noroeste 0 -- -- 36
2019-09-27 17:00:00 30.9 6 Noroeste 17 Nordeste 0 -- -- 36
2019-09-27 16:00:00 30 7 Noroeste 17 Oeste 0 -- -- 39
2019-09-27 15:00:00 29.2 5 Oeste 18 Oeste 0 -- -- 43
2019-09-27 14:00:00 27.2 9 Nordeste 18 Noroeste 0 -- -- 52
2019-09-27 13:00:00 25.2 9 Este 17 Este 0 -- -- 59
2019-09-27 12:00:00 23.2 7 Nordeste 15 Este 0 -- -- 62
2019-09-27 11:00:00 21 8 Nordeste 13 Nordeste 0 -- -- 68
2019-09-27 10:00:00 19 4 Este 7 Nordeste 0 -- -- 72
2019-09-27 09:00:00 15.3 3 Este 5 Nordeste 0 -- -- 82
2019-09-27 08:00:00 13.8 2 Oeste 7 Noroeste 0 -- -- 87
2019-09-27 07:00:00 14 0 Calma 6 Este 0 -- -- 86
2019-09-27 06:00:00 14.5 3 Noroeste 7 Oeste 0 -- -- 87
2019-09-27 05:00:00 14.7 3 Oeste 5 Oeste 0 -- -- 85
2019-09-27 04:00:00 15.2 2 Noroeste 4 Este 0 -- -- 82
2019-09-27 03:00:00 16.2 0 Calma 3 Oeste 0 -- -- 79
2019-09-27 02:00:00 17.1 0 Calma 4 Nordeste 0 -- -- 77
2019-09-27 01:00:00 18.4 0 Calma 4 Noroeste 0 -- -- 72
2019-09-27 00:00:00 19.1 0 Calma 7 Nordeste 0 -- -- 68
2019-09-26 23:00:00 20.5 3 Noroeste 5 Noroeste 0 -- -- 65
2019-09-26 22:00:00 21.7 2 Este 6 Nordeste 0 -- -- 53
2019-09-26 21:00:00 23.8 2 Norte 11 Nordeste 0 -- -- 49
2019-09-26 20:00:00 25.5 8 Nordeste 11 Este 0 -- -- 44
2019-09-26 19:00:00 27.3 8 Este 18 Este 0 -- -- 42
2019-09-26 18:00:00 28.3 10 Nordeste 17 Este 0 -- -- 38
2019-09-26 17:00:00 28.6 9 Nordeste 17 Este 0 -- -- 38
2019-09-26 16:00:00 28.1 10 Nordeste 19 Nordeste 0 -- -- 39
2019-09-26 15:00:00 26.9 10 Nordeste 19 Este 0 -- -- 41
2019-09-26 14:00:00 25.6 8 Nordeste 17 Este 0 -- -- 45
2019-09-26 13:00:00 24.5 8 Sudeste 17 Nordeste 0 -- -- 48
2019-09-26 12:00:00 22.7 8 Este 14 Este 0 -- -- 51
2019-09-26 11:00:00 20.1 8 Nordeste 13 Este 0 -- -- 60
2019-09-26 10:00:00 17.4 9 Nordeste 12 Nordeste 0 -- -- 68
2019-09-26 09:00:00 15 3 Este 7 Nordeste 0 -- -- 71
2019-09-26 08:00:00 13.2 3 Noroeste 9 Oeste 0 -- -- 76
2019-09-26 07:00:00 14.5 8 Oeste 15 Oeste 0 -- -- 71
2019-09-26 06:00:00 15.2 9 Oeste 14 Sudoeste 0 -- -- 69
2019-09-26 05:00:00 15.8 8 Oeste 15 Sudoeste 0 -- -- 66
2019-09-26 04:00:00 15.7 7 Oeste 10 Oeste 0 -- -- 68
2019-09-26 03:00:00 16.8 7 Oeste 12 Sudoeste 0 -- -- 65
2019-09-26 02:00:00 17.9 7 Sudoeste 12 Oeste 0 -- -- 57
2019-09-26 01:00:00 18.9 8 Oeste 18 Sudoeste 0 -- -- 54
2019-09-26 00:00:00 20.4 18 Sudoeste 25 Oeste 0 -- -- 50
2019-09-25 23:00:00 20.6 17 Sudoeste 23 Sudoeste 0 -- -- 49
2019-09-25 22:00:00 21.5 15 Oeste 23 Oeste 0 -- -- 48
2019-09-25 21:00:00 21.9 8 Sudoeste 14 Sudoeste 0 -- -- 46
2019-09-25 20:00:00 22.9 9 Oeste 28 Noroeste 0 -- -- 44
2019-09-25 19:00:00 24.3 19 Oeste 32 Oeste 0 -- -- 41
2019-09-25 18:00:00 25.4 18 Noroeste 36 Oeste 0 -- -- 39
2019-09-25 17:00:00 25.8 21 Oeste 39 Oeste 0 -- -- 36
2019-09-25 16:00:00 26.2 22 Oeste 44 Oeste 0 -- -- 36
2019-09-25 15:00:00 25.7 23 Oeste 44 Oeste 0 -- -- 36
2019-09-25 14:00:00 25.2 23 Oeste 42 Oeste 0 -- -- 36
2019-09-25 13:00:00 24.4 28 Oeste 45 Oeste 0 -- -- 40
2019-09-25 12:00:00 23.6 23 Oeste 39 Noroeste 0 -- -- 42
2019-09-25 11:00:00 22.6 23 Oeste 36 Oeste 0 -- -- 47
2019-09-25 10:00:00 18.9 14 Sudoeste 20 Sur 0 -- -- 64
2019-09-25 09:00:00 18.8 3 Sudoeste 14 Sudoeste 0 -- -- 66
2019-09-25 08:00:00 18.8 5 Norte 20 Noroeste 0 -- -- 67
2019-09-25 07:00:00 20.1 10 Oeste 22 Oeste 0 -- -- 60
2019-09-25 06:00:00 19 4 Noroeste 15 Noroeste 0 -- -- 70
2019-09-25 05:00:00 19.9 3 Sur 9 Oeste 0 -- -- 67
2019-09-25 04:00:00 21.5 4 Oeste 13 Oeste 0 -- -- 60
2019-09-25 03:00:00 20.2 7 Noroeste 9 Oeste 0 -- -- 63
2019-09-25 02:00:00 21.8 8 Oeste 13 Oeste 0 -- -- 56
2019-09-25 01:00:00 21.2 7 Oeste 12 Oeste 0 -- -- 57
2019-09-25 00:00:00 23 9 Oeste 12 Oeste 0 -- -- 53
2019-09-24 23:00:00 25.2 10 Oeste 23 Sudoeste 0 -- -- 48
2019-09-24 22:00:00 25 15 Sudoeste 21 Sudoeste 0 -- -- 49
2019-09-24 21:00:00 26.6 11 Noroeste 24 Noroeste 0 -- -- 43
2019-09-24 20:00:00 27.3 7 Oeste 20 Noroeste 0 -- -- 43
2019-09-24 19:00:00 29.7 11 Noroeste 22 Oeste 0 -- -- 35
2019-09-24 18:00:00 31 13 Noroeste 25 Oeste 0 -- -- 33
2019-09-24 17:00:00 30.5 7 Nordeste 15 Oeste 0 -- -- 33
2019-09-24 16:00:00 30.3 6 Noroeste 25 Oeste 0 -- -- 33
2019-09-24 15:00:00 29.3 10 Nordeste 18 Noroeste 0 -- -- 35
2019-09-24 14:00:00 28.4 8 Norte 17 Nordeste 0 -- -- 36
2019-09-24 13:00:00 26.3 12 Nordeste 19 Nordeste 0 -- -- 43
2019-09-24 12:00:00 24.3 7 Sudeste 14 Sur 0 -- -- 43
2019-09-24 11:00:00 20.4 6 Nordeste 14 Nordeste 0 -- -- 57
2019-09-24 10:00:00 17.2 6 Nordeste 10 Nordeste 0 -- -- 67
2019-09-24 09:00:00 14.9 2 Norte 8 Noroeste 0 -- -- 68
2019-09-24 08:00:00 12.4 3 Oeste 9 Oeste 0 -- -- 76
2019-09-24 07:00:00 12.6 2 Este 5 Nordeste 0 -- -- 74
2019-09-24 06:00:00 13.4 2 Oeste 8 Oeste 0 -- -- 72
2019-09-24 05:00:00 13.3 4 Oeste 6 Oeste 0 -- -- 69
2019-09-24 04:00:00 13.9 3 Nordeste 8 Oeste 0 -- -- 67
2019-09-24 03:00:00 14.5 3 Oeste 5 Noroeste 0 -- -- 64
2019-09-24 02:00:00 16 3 Norte 12 Oeste 0 -- -- 59
2019-09-24 01:00:00 16 4 Oeste 7 Oeste 0 -- -- 59
2019-09-24 00:00:00 17 6 Oeste 11 Oeste 0 -- -- 56
2019-09-23 23:00:00 18 4 Oeste 8 Oeste 0 -- -- 54
2019-09-23 22:00:00 19.3 5 Oeste 7 Oeste 0 -- -- 51
2019-09-23 21:00:00 20.8 0 Calma 7 Oeste 0 -- -- 47
2019-09-23 20:00:00 22.8 5 Oeste 17 Noroeste 0 -- -- 42
2019-09-23 19:00:00 25.2 10 Noroeste 20 Oeste 0 -- -- 35
2019-09-23 18:00:00 26.3 10 Noroeste 22 Noroeste 0 -- -- 34
2019-09-23 17:00:00 26.4 6 Noroeste 21 Oeste 0 -- -- 36
2019-09-23 16:00:00 26.8 7 Oeste 23 Oeste 0 -- -- 33
2019-09-23 15:00:00 26.5 14 Sudoeste 21 Sur 0 -- -- 34
2019-09-23 14:00:00 24.7 6 Norte 18 Nordeste 0 -- -- 43
2019-09-23 13:00:00 23.3 10 Este 15 Este 0 -- -- 51
2019-09-23 12:00:00 21 6 Nordeste 14 Este 0 -- -- 57
2019-09-23 11:00:00 18.6 8 Este 11 Este 0 -- -- 65
2019-09-23 10:00:00 16.5 4 Sudeste 10 Oeste 0 -- -- 72
2019-09-23 09:00:00 13.8 7 Oeste 10 Oeste 0 -- -- 77
2019-09-23 08:00:00 12.4 5 Oeste 12 Oeste 0 -- -- 78
2019-09-23 07:00:00 12.9 9 Oeste 13 Sudoeste 0 -- -- 76
2019-09-23 06:00:00 12.5 5 Noroeste 8 Oeste 0 -- -- 74
2019-09-23 05:00:00 12.6 3 Noroeste 9 Nordeste 0 -- -- 76
2019-09-23 04:00:00 13.3 4 Noroeste 9 Oeste 0 -- -- 67
2019-09-23 03:00:00 14 2 Noroeste 8 Noroeste 0 -- -- 67
2019-09-23 02:00:00 14.9 2 Nordeste 8 Oeste 0 -- -- 67
2019-09-23 01:00:00 16.6 0 Calma 10 Oeste 0 -- -- 62
2019-09-23 00:00:00 18.3 9 Oeste 19 Oeste 0 -- -- 56
2019-09-22 23:00:00 18.9 8 Oeste 19 Oeste 0 -- -- 58
2019-09-22 22:00:00 19.8 10 Oeste 19 Oeste 0 -- -- 57
2019-09-22 21:00:00 20.9 8 Oeste 19 Oeste 0 -- -- 57
2019-09-22 20:00:00 23.5 15 Oeste 31 Noroeste 0 -- -- 50
2019-09-22 19:00:00 25.9 19 Oeste 31 Noroeste 0 -- -- 46
2019-09-22 18:00:00 25.6 19 Noroeste 36 Oeste 0 -- -- 49
2019-09-22 17:00:00 27.2 21 Oeste 40 Oeste 0 -- -- 41
2019-09-22 16:00:00 28.5 20 Oeste 44 Sudoeste 0 -- -- 46
2019-09-22 15:00:00 27.7 15 Oeste 29 Oeste 0 -- -- 49
2019-09-22 14:00:00 27.2 15 Noroeste 28 Oeste 0 -- -- 52
2019-09-22 13:00:00 26.4 16 Oeste 30 Oeste 0 -- -- 51
2019-09-22 12:00:00 24.3 10 Nordeste 15 Nordeste 0 -- -- 71
2019-09-22 11:00:00 22 9 Este 16 Este 0 -- -- 79
2019-09-22 10:00:00 20.7 8 Este 18 Este 0 -- -- 81
2019-09-22 09:00:00 18.7 3 Nordeste 11 Nordeste 0 -- -- 89
2019-09-22 08:00:00 18.7 4 Nordeste 13 Nordeste 0 -- -- 87
2019-09-22 07:00:00 18.7 9 Nordeste 22 Este 0 -- -- 87
2019-09-22 06:00:00 19 11 Este 19 Este 0 -- -- 86
2019-09-22 05:00:00 19.4 12 Este 21 Este 0 -- -- 84
2019-09-22 04:00:00 19.7 12 Este 22 Este 0 -- -- 84
2019-09-22 03:00:00 20.2 13 Este 21 Este 0 -- -- 83
2019-09-22 02:00:00 20.6 10 Este 19 Este 0 -- -- 83
2019-09-22 01:00:00 20.9 10 Nordeste 20 Este 0 -- -- 83
2019-09-22 00:00:00 21.6 14 Este 21 Sudeste 0 -- -- 82
2019-09-21 23:00:00 22.1 12 Este 22 Este 0 -- -- 79
2019-09-21 22:00:00 22.9 8 Este 23 Este 0 -- -- 77
2019-09-21 21:00:00 23.8 9 Este 24 Este 0 -- -- 71
2019-09-21 20:00:00 24.6 16 Este 29 Este 0 -- -- 59
2019-09-21 19:00:00 26.3 16 Este 25 Sudeste 0 -- -- 57
2019-09-21 18:00:00 26.8 7 Nordeste 17 Este 0 -- -- 55
2019-09-21 17:00:00 27.8 14 Este 21 Este 0 -- -- 50
2019-09-21 16:00:00 27.8 9 Este 20 Sur 0 -- -- 50
2019-09-21 15:00:00 26.4 8 Oeste 18 Sudoeste 0 -- -- 53
2019-09-21 14:00:00 25.5 10 Este 18 Este 0 -- -- 61
2019-09-21 13:00:00 23.6 8 Nordeste 22 Este 0 -- -- 70
2019-09-21 12:00:00 22 8 Sudeste 19 Este 0 -- -- 79
2019-09-21 11:00:00 19.9 12 Nordeste 17 Nordeste 0 -- -- 89
2019-09-21 10:00:00 18.8 5 Noroeste 12 Nordeste 0 -- -- 92
2019-09-21 09:00:00 18.2 8 Este 13 Este 0 -- -- 93
2019-09-21 08:00:00 17.8 6 Nordeste 19 Sudeste 1.4 -- -- 94
2019-09-21 07:00:00 18.7 13 Este 20 Este 1.8 -- -- 86
2019-09-21 06:00:00 18.8 8 Nordeste 19 Este 0 -- -- 87
2019-09-21 05:00:00 19.1 8 Nordeste 22 Este 0 -- -- 83
2019-09-21 04:00:00 20.2 12 Este 22 Este 0 -- -- 78
2019-09-21 03:00:00 20 6 Sudeste 19 Sudeste 0 -- -- 79
2019-09-21 02:00:00 19.6 14 Este 20 Este 0 -- -- 79
2019-09-21 01:00:00 19.8 11 Este 17 Nordeste 0 -- -- 74
2019-09-21 00:00:00 20.7 10 Nordeste 19 Este 0 -- -- 72
2019-09-20 23:00:00 22.1 11 Este 26 Sudeste 0 -- -- 65
2019-09-20 22:00:00 22.4 16 Este 28 Sudeste 0 -- -- 63
2019-09-20 21:00:00 23.1 18 Este 31 Este 0 -- -- 54
2019-09-20 20:00:00 24.1 15 Este 35 Sudeste 0 -- -- 58
2019-09-20 19:00:00 25.2 21 Sudeste 48 Sudeste 0 -- -- 58
2019-09-20 18:00:00 26.8 17 Sudeste 35 Sudeste 0 -- -- 53
2019-09-20 17:00:00 28.1 18 Este 36 Este 0 -- -- 48
2019-09-20 16:00:00 28.8 19 Este 33 Nordeste 0 -- -- 46
2019-09-20 15:00:00 28.3 18 Este 36 Este 0 -- -- 47
2019-09-20 14:00:00 27.5 19 Este 32 Este 0 -- -- 47
2019-09-20 13:00:00 26.8 15 Este 29 Este 0 -- -- 49
2019-09-20 12:00:00 25.3 15 Este 29 Este 0 -- -- 57
2019-09-20 11:00:00 23.2 10 Este 19 Este 0 -- -- 61
2019-09-20 10:00:00 20.1 14 Este 20 Este 0 -- -- 71
2019-09-20 09:00:00 18 11 Nordeste 17 Nordeste 0 -- -- 80
2019-09-20 08:00:00 17.4 10 Nordeste 20 Nordeste 0 -- -- 81
2019-09-20 07:00:00 17.4 3 Nordeste 15 Nordeste 0 -- -- 81
2019-09-20 06:00:00 17.9 3 Este 8 Nordeste 0 -- -- 79
2019-09-20 05:00:00 18.9 8 Este 13 Este 0 -- -- 75
2019-09-20 04:00:00 18.5 4 Noroeste 10 Nordeste 0 -- -- 77
2019-09-20 03:00:00 18.3 4 Norte 8 Noroeste 0 -- -- 79
2019-09-20 02:00:00 19.3 2 Norte 12 Nordeste 0 -- -- 75
2019-09-20 01:00:00 20.5 6 Nordeste 14 Este 0 -- -- 73
2019-09-20 00:00:00 21.1 10 Este 23 Este 0 -- -- 70
2019-09-19 23:00:00 22.6 19 Este 32 Sudeste 0 -- -- 65
2019-09-19 22:00:00 23 4 Nordeste 18 Este 0 -- -- 62
2019-09-19 21:00:00 24.6 10 Sudeste 22 Sur 0 -- -- 58
2019-09-19 20:00:00 26.3 9 Sudeste 26 Sudeste 0 -- -- 51
2019-09-19 19:00:00 27.2 14 Este 32 Nordeste 0 -- -- 50
2019-09-19 18:00:00 30.1 10 Este 20 Este 0 -- -- 41
2019-09-19 17:00:00 30.1 11 Nordeste 20 Nordeste 0 -- -- 41
2019-09-19 16:00:00 29.6 9 Este 19 Este 0 -- -- 42
2019-09-19 15:00:00 28.9 9 Nordeste 17 Nordeste 0 -- -- 45
2019-09-19 14:00:00 28 5 Nordeste 17 Nordeste 0 -- -- 45
2019-09-19 13:00:00 26.6 7 Sudoeste 13 Sur 0 -- -- 47
2019-09-19 12:00:00 24.4 6 Sur 15 Sur 0 -- -- 58
2019-09-19 11:00:00 22.8 7 Nordeste 14 Nordeste 0 -- -- 67
2019-09-19 10:00:00 21.2 6 Nordeste 9 Nordeste 0 -- -- 70
2019-09-19 09:00:00 18.3 6 Sudoeste 10 Sudoeste 0 -- -- 76
2019-09-19 08:00:00 16.8 6 Oeste 9 Oeste 0 -- -- 81
2019-09-19 07:00:00 17.2 6 Noroeste 8 Noroeste 0 -- -- 81
2019-09-19 06:00:00 17.6 0 Calma 7 Oeste 0 -- -- 78
2019-09-19 05:00:00 18.3 5 Oeste 8 Oeste 0 -- -- 77
2019-09-19 04:00:00 18.7 7 Oeste 11 Oeste 0 -- -- 76
2019-09-19 03:00:00 18.8 2 Sur 6 Noroeste 0 -- -- 78
2019-09-19 02:00:00 19.4 2 Este 13 Nordeste 0 -- -- 77
2019-09-19 01:00:00 21.6 7 Noroeste 17 Sudoeste 0 -- -- 67
2019-09-19 00:00:00 21.3 3 Oeste 16 Este 0 -- -- 65
2019-09-18 23:00:00 21.6 3 Sudoeste 10 Oeste 0 -- -- 62
2019-09-18 22:00:00 22.3 3 Nordeste 15 Oeste 0 -- -- 68
2019-09-18 21:00:00 24.5 6 Noroeste 12 Oeste 0 -- -- 49
2019-09-18 20:00:00 25.8 8 Nordeste 31 Noroeste 0 -- -- 46
2019-09-18 19:00:00 26.8 18 Oeste 57 Sudoeste 0 -- -- 44
2019-09-18 18:00:00 30.8 6 Sudeste 16 Nordeste 0 -- -- 36
2019-09-18 17:00:00 31.2 8 Este 15 Este 0 -- -- 38
2019-09-18 16:00:00 30.8 8 Nordeste 17 Este 0 -- -- 41
2019-09-18 15:00:00 29.5 8 Nordeste 15 Este 0 -- -- 44
2019-09-18 14:00:00 28.8 9 Este 16 Nordeste 0 -- -- 47
2019-09-18 13:00:00 27.2 8 Nordeste 15 Norte 0 -- -- 51
2019-09-18 12:00:00 26.5 6 Norte 15 Oeste 0 -- -- 52
2019-09-18 11:00:00 23.9 12 Oeste 21 Oeste 0 -- -- 58
2019-09-18 10:00:00 20.6 9 Nordeste 11 Nordeste 0 -- -- 71
2019-09-18 09:00:00 17.8 2 Oeste 6 Noroeste 0 -- -- 73
2019-09-18 08:00:00 16.4 3 Oeste 6 Nordeste 0 -- -- 77
2019-09-18 07:00:00 17.3 2 Nordeste 5 Noroeste 0 -- -- 73
2019-09-18 06:00:00 18.2 0 Calma 10 Oeste 0 -- -- 72
2019-09-18 05:00:00 19.2 8 Sudoeste 15 Sudoeste 0 -- -- 70
2019-09-18 04:00:00 18.8 4 Oeste 16 Sudoeste 0 -- -- 70
2019-09-18 03:00:00 19.8 4 Nordeste 10 Nordeste 0 -- -- 69
2019-09-18 02:00:00 22 3 Este 12 Sudoeste 0 -- -- 60
2019-09-18 01:00:00 23.3 8 Oeste 22 Sudoeste 0 -- -- 53
2019-09-18 00:00:00 24.2 12 Sudoeste 18 Sudoeste 0 -- -- 52
2019-09-17 23:00:00 24.9 6 Sudoeste 25 Sur 0 -- -- 51
2019-09-17 22:00:00 25.8 3 Sur 15 Sudoeste 0 -- -- 49
2019-09-17 21:00:00 26 4 Nordeste 7 Nordeste 0 -- -- 45